createdAt,value
2018-12-19T00:02:57.961Z,15.73
2018-12-19T00:09:16.797Z,16.53
2018-12-19T00:12:21.303Z,16.67
2018-12-19T00:15:25.936Z,16.00
2018-12-19T00:18:30.469Z,15.97
2018-12-19T00:21:35.123Z,16.97
2018-12-19T00:24:39.615Z,16.93
2018-12-19T00:27:44.448Z,17.07
2018-12-19T00:30:49.114Z,17.03
2018-12-19T00:33:53.737Z,17.53
2018-12-19T00:36:58.282Z,15.80
2018-12-19T00:40:02.824Z,15.97
2018-12-19T00:43:07.381Z,16.30
2018-12-19T00:46:11.875Z,16.80
2018-12-19T00:49:16.492Z,16.80
2018-12-19T00:52:21.143Z,15.77
2018-12-19T00:55:25.831Z,16.13
2018-12-19T00:58:30.534Z,14.97
2018-12-19T01:01:35.088Z,15.43
2018-12-19T01:04:39.687Z,16.87
2018-12-19T01:07:45.280Z,15.90
2018-12-19T01:10:49.748Z,16.07
2018-12-19T01:13:54.334Z,16.60
2018-12-19T01:16:58.804Z,17.27
2018-12-19T01:20:03.417Z,16.57
2018-12-19T01:23:08.221Z,16.43
2018-12-19T01:26:12.722Z,17.07
2018-12-19T01:29:17.233Z,16.63
2018-12-19T01:32:21.852Z,16.63
2018-12-19T01:35:26.312Z,17.53
2018-12-19T01:38:30.978Z,16.00
2018-12-19T01:41:35.530Z,17.47
2018-12-19T01:44:40.135Z,17.87
2018-12-19T01:47:45.138Z,18.13
2018-12-19T01:50:49.678Z,18.37
2018-12-19T01:53:54.335Z,17.33
2018-12-19T01:56:58.859Z,18.13
2018-12-19T02:00:03.577Z,16.80
2018-12-19T02:03:08.308Z,17.60
2018-12-19T02:06:12.853Z,16.70
2018-12-19T02:09:17.510Z,16.40
2018-12-19T02:12:22.245Z,16.93
2018-12-19T02:15:26.752Z,16.17
2018-12-19T02:18:31.202Z,17.60
2018-12-19T02:21:35.734Z,18.27
2018-12-19T02:24:40.369Z,16.93
2018-12-19T02:27:45.063Z,17.60
2018-12-19T02:30:50.026Z,18.13
2018-12-19T02:33:55.004Z,17.73
2018-12-19T02:36:59.625Z,17.63
2018-12-19T02:40:04.305Z,18.00
2018-12-19T02:43:08.860Z,17.20
2018-12-19T02:46:13.400Z,17.80
2018-12-19T02:49:18.003Z,17.93
2018-12-19T02:52:22.832Z,18.37
2018-12-19T02:55:27.529Z,18.10
2018-12-19T02:58:32.036Z,18.30
2018-12-19T03:01:36.577Z,18.60
2018-12-19T03:04:41.212Z,18.37
2018-12-19T03:07:45.650Z,18.13
2018-12-19T03:10:50.524Z,18.10
2018-12-19T03:13:56.765Z,18.00
2018-12-19T03:17:01.481Z,18.50
2018-12-19T03:20:06.752Z,19.73
2018-12-19T03:23:11.255Z,19.00
2018-12-19T03:26:15.803Z,19.33
2018-12-19T03:29:20.409Z,18.93
2018-12-19T03:32:25.053Z,19.00
2018-12-19T03:35:29.665Z,17.70
2018-12-19T03:38:34.163Z,19.80
2018-12-19T03:41:38.777Z,18.87
2018-12-19T03:44:43.288Z,18.43
2018-12-19T03:47:47.845Z,16.70
2018-12-19T03:50:52.424Z,18.67
2018-12-19T03:53:56.806Z,18.80
2018-12-19T03:57:01.485Z,18.57
2018-12-19T04:00:08.104Z,19.33
2018-12-19T04:03:12.645Z,18.83
2018-12-19T04:06:17.401Z,19.00
2018-12-19T04:09:22.006Z,19.40
2018-12-19T04:12:26.487Z,19.40
2018-12-19T04:15:31.319Z,18.53
2018-12-19T04:18:35.854Z,19.93
2018-12-19T04:21:40.664Z,20.57
2018-12-19T04:24:45.311Z,18.70
2018-12-19T04:27:49.921Z,19.57
2018-12-19T04:30:54.567Z,18.03
2018-12-19T04:33:59.122Z,19.17
2018-12-19T04:37:03.665Z,18.57
2018-12-19T04:40:08.304Z,18.90
2018-12-19T04:43:12.990Z,20.20
2018-12-19T04:46:17.558Z,20.87
2018-12-19T04:49:22.249Z,19.70
2018-12-19T04:52:26.902Z,19.07
2018-12-19T04:55:31.488Z,18.50
2018-12-19T04:58:36.067Z,19.87
2018-12-19T05:01:40.625Z,18.90
2018-12-19T05:04:45.370Z,19.10
2018-12-19T05:07:50.307Z,19.30
2018-12-19T05:10:55.828Z,19.83
2018-12-19T05:14:00.320Z,19.40
2018-12-19T05:17:07.860Z,19.37
2018-12-19T05:20:12.860Z,19.87
2018-12-19T05:23:17.427Z,18.50
2018-12-19T05:26:21.993Z,20.67
2018-12-19T05:29:26.490Z,20.73
2018-12-19T05:32:31.136Z,20.90
2018-12-19T05:35:35.753Z,19.80
2018-12-19T05:38:40.264Z,19.00
2018-12-19T05:41:45.316Z,21.83
2018-12-19T05:44:49.866Z,21.27
2018-12-19T05:47:54.413Z,20.33
2018-12-19T05:50:59.148Z,19.73
2018-12-19T05:54:04.025Z,19.37
2018-12-19T05:57:10.184Z,19.47
2018-12-19T06:00:15.011Z,19.37
2018-12-19T06:03:19.739Z,20.00
2018-12-19T06:06:24.273Z,19.60
2018-12-19T06:09:28.811Z,18.87
2018-12-19T06:12:33.363Z,19.90
2018-12-19T06:15:38.001Z,20.87
2018-12-19T06:18:42.564Z,21.10
2018-12-19T06:21:47.107Z,25.27
2018-12-19T06:24:51.686Z,26.87
2018-12-19T06:27:56.547Z,24.40
2018-12-19T06:31:01.154Z,23.00
2018-12-19T06:34:05.598Z,21.00
2018-12-19T06:37:10.238Z,22.03
2018-12-19T06:40:14.863Z,21.03
2018-12-19T06:43:19.565Z,19.50
2018-12-19T06:46:24.305Z,21.93
2018-12-19T06:49:29.156Z,19.20
2018-12-19T06:52:34.483Z,18.63
2018-12-19T06:55:39.045Z,20.77
2018-12-19T06:58:43.550Z,22.30
2018-12-19T07:01:48.313Z,23.03
2018-12-19T07:04:52.964Z,22.50
2018-12-19T07:07:57.746Z,22.23
2018-12-19T07:11:02.402Z,21.77
2018-12-19T07:14:07.217Z,22.93
2018-12-19T07:17:12.795Z,27.60
2018-12-19T07:20:17.345Z,27.17
2018-12-19T07:23:21.888Z,24.83
2018-12-19T07:26:26.601Z,23.93
2018-12-19T07:29:31.210Z,23.17
2018-12-19T07:32:35.784Z,21.20
2018-12-19T07:35:40.350Z,21.20
2018-12-19T07:38:45.024Z,22.97
2018-12-19T07:41:49.526Z,25.37
2018-12-19T07:44:55.863Z,21.67
2018-12-19T07:48:00.369Z,21.90
2018-12-19T07:51:04.997Z,23.53
2018-12-19T07:54:09.566Z,22.63
2018-12-19T07:57:14.081Z,22.43
2018-12-19T08:00:18.634Z,23.23
2018-12-19T08:03:24.467Z,25.53
2018-12-19T08:06:28.957Z,23.20
2018-12-19T08:09:33.451Z,22.90
2018-12-19T08:12:38.097Z,26.90
2018-12-19T08:15:42.735Z,30.90
2018-12-19T08:18:47.358Z,22.90
2018-12-19T08:21:51.930Z,22.43
2018-12-19T08:24:56.496Z,22.40
2018-12-19T08:28:01.122Z,23.60
2018-12-19T08:31:05.776Z,23.37
2018-12-19T08:34:10.368Z,20.10
2018-12-19T08:37:14.890Z,23.53
2018-12-19T08:40:19.489Z,23.57
2018-12-19T08:43:24.082Z,22.17
2018-12-19T08:46:28.551Z,21.63
2018-12-19T08:49:33.144Z,23.27
2018-12-19T08:52:37.682Z,21.27
2018-12-19T08:55:42.385Z,22.20
2018-12-19T08:58:46.947Z,25.83
2018-12-19T09:01:51.636Z,28.17
2018-12-19T09:04:56.282Z,26.73
2018-12-19T09:08:00.855Z,24.23
2018-12-19T09:11:06.031Z,23.13
2018-12-19T09:14:10.682Z,33.47
2018-12-19T09:17:15.386Z,23.43
2018-12-19T09:20:20.358Z,21.67
2018-12-19T09:23:24.983Z,25.57
2018-12-19T09:26:29.773Z,24.67
2018-12-19T09:32:54.584Z,22.87
2018-12-19T09:35:59.258Z,23.47
2018-12-19T09:39:05.741Z,24.97
2018-12-19T09:42:10.302Z,25.83
2018-12-19T09:45:14.940Z,47.27
2018-12-19T09:48:19.806Z,28.03
2018-12-19T09:51:24.482Z,24.57
2018-12-19T09:54:29.078Z,24.40
2018-12-19T09:57:33.656Z,22.77
2018-12-19T10:00:38.762Z,23.57
2018-12-19T10:03:43.307Z,24.27
2018-12-19T10:06:47.927Z,25.37
2018-12-19T10:09:52.479Z,25.37
2018-12-19T10:12:56.944Z,23.90
2018-12-19T10:16:01.617Z,23.50
2018-12-19T10:19:06.157Z,26.67
2018-12-19T10:22:10.605Z,22.50
2018-12-19T10:25:15.986Z,23.47
2018-12-19T10:31:39.314Z,25.00
2018-12-19T10:34:44.173Z,24.67
2018-12-19T10:37:48.807Z,26.33
2018-12-19T10:40:54.092Z,24.83
2018-12-19T10:43:58.997Z,25.90
2018-12-19T10:47:03.526Z,22.60
2018-12-19T10:50:10.884Z,24.80
2018-12-19T10:53:15.472Z,25.43
2018-12-19T10:56:19.985Z,26.03
2018-12-19T10:59:24.748Z,25.00
2018-12-19T11:02:29.239Z,24.90
2018-12-19T11:05:33.860Z,24.13
2018-12-19T11:08:38.334Z,23.70
2018-12-19T11:11:42.858Z,24.60
2018-12-19T11:14:47.570Z,24.17
2018-12-19T11:17:58.716Z,25.50
2018-12-19T11:21:03.453Z,24.20
2018-12-19T11:24:08.389Z,25.37
2018-12-19T11:27:12.941Z,24.93
2018-12-19T11:30:17.525Z,27.27
2018-12-19T11:33:22.036Z,25.63
2018-12-19T11:36:26.801Z,26.73
2018-12-19T11:39:31.347Z,27.27
2018-12-19T11:42:36.047Z,26.53
2018-12-19T11:45:40.613Z,27.73
2018-12-19T11:48:45.193Z,29.27
2018-12-19T11:51:49.894Z,29.17
2018-12-19T11:54:54.307Z,28.33
2018-12-19T11:57:58.890Z,27.33
2018-12-19T12:01:03.485Z,25.43
2018-12-19T12:04:07.895Z,29.03
2018-12-19T12:07:12.809Z,26.57
2018-12-19T12:10:17.323Z,26.90
2018-12-19T12:13:21.888Z,27.97
2018-12-19T12:16:27.986Z,26.77
2018-12-19T12:19:32.815Z,26.90
2018-12-19T12:22:37.505Z,25.63
2018-12-19T12:28:55.323Z,25.50
2018-12-19T12:31:59.984Z,26.63
2018-12-19T12:35:05.387Z,26.20
2018-12-19T12:38:10.007Z,27.70
2018-12-19T12:41:14.520Z,26.53
2018-12-19T12:44:19.068Z,27.57
2018-12-19T12:47:23.683Z,26.80
2018-12-19T12:50:28.200Z,26.93
2018-12-19T12:53:33.335Z,26.07
2018-12-19T12:56:37.829Z,27.27
2018-12-19T12:59:42.870Z,25.07
2018-12-19T13:02:47.527Z,25.63
2018-12-19T13:05:52.066Z,24.43
2018-12-19T13:08:59.585Z,26.10
2018-12-19T13:12:04.252Z,27.60
2018-12-19T13:15:09.486Z,26.53
2018-12-19T13:18:14.767Z,27.63
2018-12-19T13:21:19.522Z,26.53
2018-12-19T13:24:24.073Z,28.37
2018-12-19T13:27:28.696Z,27.63
2018-12-19T13:30:33.379Z,27.70
2018-12-19T13:33:38.102Z,26.30
2018-12-19T13:39:56.921Z,24.57
2018-12-19T13:43:01.613Z,25.17
2018-12-19T13:46:06.158Z,27.47
2018-12-19T13:49:11.806Z,26.10
2018-12-19T13:52:16.286Z,28.73
2018-12-19T13:55:20.831Z,25.93
2018-12-19T13:58:25.392Z,26.87
2018-12-19T14:01:29.898Z,27.07
2018-12-19T14:04:35.344Z,26.63
2018-12-19T14:07:39.957Z,26.37
2018-12-19T14:10:44.439Z,28.23
2018-12-19T14:13:48.988Z,25.67
2018-12-19T14:16:53.682Z,26.93
2018-12-19T14:19:58.264Z,28.70
2018-12-19T14:23:02.897Z,28.00
2018-12-19T14:26:07.614Z,26.77
2018-12-19T14:29:12.203Z,26.80
2018-12-19T14:32:16.812Z,27.60
2018-12-19T14:35:21.509Z,27.10
2018-12-19T14:38:26.125Z,26.43
2018-12-19T14:41:30.776Z,27.53
2018-12-19T14:44:35.419Z,28.43
2018-12-19T14:47:40.131Z,28.17
2018-12-19T14:50:44.611Z,29.40
2018-12-19T14:53:49.384Z,28.90
2018-12-19T14:56:54.995Z,28.83
2018-12-19T14:59:59.625Z,27.47
2018-12-19T15:03:04.348Z,28.33
2018-12-19T15:06:11.909Z,27.00
2018-12-19T15:09:16.499Z,34.23
2018-12-19T15:12:25.724Z,30.20
2018-12-19T15:15:28.012Z,29.67
2018-12-19T15:18:32.605Z,30.40
2018-12-19T15:21:37.424Z,31.23
2018-12-19T15:24:41.907Z,30.83
2018-12-19T15:27:46.489Z,33.30
2018-12-19T15:30:51.107Z,32.30
2018-12-19T15:33:56.098Z,32.80
2018-12-19T15:37:01.319Z,32.53
2018-12-19T15:40:06.700Z,28.80
2018-12-19T15:43:11.282Z,31.07
2018-12-19T15:46:15.817Z,31.90
2018-12-19T15:49:20.423Z,29.60
2018-12-19T15:52:25.069Z,34.20
2018-12-19T15:55:29.709Z,29.07
2018-12-19T15:58:34.351Z,27.17
2018-12-19T16:01:38.956Z,28.27
2018-12-19T16:04:43.573Z,27.23
2018-12-19T16:07:48.147Z,28.20
2018-12-19T16:10:52.729Z,28.40
2018-12-19T16:13:57.256Z,28.00
2018-12-19T16:17:01.903Z,27.33
2018-12-19T16:20:08.459Z,33.53
2018-12-19T16:23:13.072Z,33.43
2018-12-19T16:26:17.687Z,31.23
2018-12-19T16:29:22.388Z,36.07
2018-12-19T16:32:27.062Z,33.23
2018-12-19T16:35:31.560Z,30.53
2018-12-19T16:38:36.152Z,31.27
2018-12-19T16:41:40.641Z,30.70
2018-12-19T16:44:45.207Z,27.53
2018-12-19T16:47:49.778Z,30.83
2018-12-19T16:50:54.418Z,34.10
2018-12-19T16:53:59.595Z,30.40
2018-12-19T16:57:04.176Z,27.23
2018-12-19T17:00:10.676Z,29.63
2018-12-19T17:03:15.197Z,38.50
2018-12-19T17:06:19.681Z,30.00
2018-12-19T17:09:24.357Z,29.03
2018-12-19T17:12:28.926Z,30.23
2018-12-19T17:15:33.408Z,30.17
2018-12-19T17:18:38.048Z,32.03
2018-12-19T17:21:42.562Z,37.73
2018-12-19T17:24:47.245Z,36.60
2018-12-19T17:27:51.740Z,34.90
2018-12-19T17:30:56.225Z,34.17
2018-12-19T17:34:00.717Z,33.70
2018-12-19T17:37:05.287Z,36.77
2018-12-19T17:40:09.863Z,32.50
2018-12-19T17:43:14.420Z,30.40
2018-12-19T17:46:19.122Z,36.63
2018-12-19T17:49:23.687Z,36.27
2018-12-19T17:52:28.191Z,34.90
2018-12-19T17:55:32.715Z,36.43
2018-12-19T17:58:37.267Z,33.13
2018-12-19T18:01:42.136Z,30.23
2018-12-19T18:04:46.680Z,31.00
2018-12-19T18:07:51.478Z,31.17
2018-12-19T18:10:56.015Z,36.87
2018-12-19T18:14:00.913Z,35.67
2018-12-19T18:17:05.616Z,35.83
2018-12-19T18:20:10.433Z,31.53
2018-12-19T18:23:15.086Z,37.80
2018-12-19T18:26:19.681Z,35.13
2018-12-19T18:29:24.182Z,31.80
2018-12-19T18:32:28.677Z,32.43
2018-12-19T18:35:33.217Z,30.60
2018-12-19T18:38:37.868Z,45.47
2018-12-19T18:41:42.571Z,41.33
2018-12-19T18:44:47.026Z,33.73
2018-12-19T18:47:51.831Z,35.30
2018-12-19T18:50:56.366Z,37.40
2018-12-19T18:54:00.992Z,33.33
2018-12-19T18:57:05.637Z,30.73
2018-12-19T19:00:11.083Z,32.83
2018-12-19T19:03:15.714Z,30.97
2018-12-19T19:06:20.456Z,34.00
2018-12-19T19:09:25.123Z,36.60
2018-12-19T19:12:29.682Z,35.73
2018-12-19T19:15:34.376Z,48.87
2018-12-19T19:18:39.078Z,38.77
2018-12-19T19:21:43.631Z,36.43
2018-12-19T19:24:48.186Z,34.77
2018-12-19T19:27:52.702Z,40.13
2018-12-19T19:30:57.329Z,40.90
2018-12-19T19:34:01.914Z,36.80
2018-12-19T19:37:06.611Z,31.63
2018-12-19T19:40:11.644Z,35.10
2018-12-19T19:43:16.218Z,36.00
2018-12-19T19:46:20.685Z,40.00
2018-12-19T19:49:25.725Z,44.67
2018-12-19T19:52:30.250Z,42.53
2018-12-19T19:55:34.806Z,37.47
2018-12-19T19:58:39.582Z,35.97
2018-12-19T20:01:44.218Z,34.90
2018-12-19T20:04:48.749Z,31.87
2018-12-19T20:07:53.377Z,35.33
2018-12-19T20:10:57.925Z,35.10
2018-12-19T20:14:02.479Z,31.77
2018-12-19T20:17:07.077Z,33.07
2018-12-19T20:20:11.824Z,33.03
2018-12-19T20:23:16.314Z,31.73
2018-12-19T20:26:21.071Z,31.63
2018-12-19T20:29:25.624Z,31.43
2018-12-19T20:32:30.218Z,33.13
2018-12-19T20:35:34.983Z,33.87
2018-12-19T20:38:39.528Z,32.30
2018-12-19T20:41:44.148Z,30.20
2018-12-19T20:44:48.713Z,28.97
2018-12-19T20:47:53.321Z,30.83
2018-12-19T20:50:57.913Z,33.57
2018-12-19T20:54:02.475Z,28.53
2018-12-19T20:57:06.810Z,30.93
2018-12-19T21:00:11.812Z,28.83
2018-12-19T21:03:16.475Z,29.43
2018-12-19T21:06:21.137Z,30.83
2018-12-19T21:09:25.692Z,29.53
2018-12-19T21:12:30.317Z,31.93
2018-12-19T21:15:34.888Z,30.23
2018-12-19T21:18:49.380Z,30.87
2018-12-19T21:21:54.010Z,30.03
2018-12-19T21:24:58.593Z,31.43
2018-12-19T21:28:03.228Z,32.20
2018-12-19T21:31:08.600Z,31.67
2018-12-19T21:34:13.146Z,29.67
2018-12-19T21:37:17.830Z,28.60
2018-12-19T21:40:22.530Z,29.60
2018-12-19T21:43:28.793Z,28.63
2018-12-19T21:46:33.554Z,28.83
2018-12-19T21:49:38.215Z,29.63
2018-12-19T21:52:42.884Z,30.20
2018-12-19T21:55:47.461Z,30.57
2018-12-19T21:58:51.972Z,27.63
2018-12-19T22:01:56.440Z,28.30
2018-12-19T22:05:00.993Z,30.33
2018-12-19T22:08:05.965Z,31.03
2018-12-19T22:11:10.722Z,32.30
2018-12-19T22:14:15.577Z,30.70
2018-12-19T22:17:25.502Z,32.50
2018-12-19T22:20:30.045Z,33.07
2018-12-19T22:23:34.714Z,33.40
2018-12-19T22:26:39.391Z,33.57
2018-12-19T22:29:44.152Z,33.60
2018-12-19T22:32:48.885Z,43.60
2018-12-19T22:35:53.854Z,37.37
2018-12-19T22:38:58.459Z,35.00
2018-12-19T22:42:03.293Z,35.77
2018-12-19T22:45:08.257Z,34.20
2018-12-19T22:48:13.051Z,32.43
2018-12-19T22:51:17.661Z,33.47
2018-12-19T22:54:22.335Z,36.10
2018-12-19T22:57:26.969Z,32.30
2018-12-19T23:00:36.150Z,32.77
2018-12-19T23:03:45.972Z,32.33
2018-12-19T23:06:50.730Z,32.87
2018-12-19T23:09:55.331Z,30.30
2018-12-19T23:12:59.960Z,31.47
2018-12-19T23:16:04.658Z,33.30
2018-12-19T23:19:09.319Z,32.47
2018-12-19T23:22:13.833Z,33.03
2018-12-19T23:25:18.704Z,34.13
2018-12-19T23:28:23.253Z,32.37
2018-12-19T23:31:28.079Z,32.80
2018-12-19T23:34:32.809Z,29.47
2018-12-19T23:37:37.508Z,31.47
2018-12-19T23:40:42.144Z,29.90
2018-12-19T23:43:46.853Z,29.43
2018-12-19T23:46:52.040Z,30.33
2018-12-19T23:49:56.896Z,31.47
2018-12-19T23:53:01.546Z,31.33
2018-12-19T23:56:06.171Z,32.67
2018-12-19T23:59:10.718Z,34.70
